createdAt,value
2023-08-15T00:00:28.123Z,68.66
2023-08-15T00:01:21.547Z,68.78
2023-08-15T00:01:55.024Z,68.79
2023-08-15T00:02:28.575Z,69.01
2023-08-15T00:03:02.171Z,68.87
2023-08-15T00:03:35.912Z,68.94
2023-08-15T00:04:09.480Z,69.00
2023-08-15T00:04:43.172Z,69.00
2023-08-15T00:05:17.077Z,69.11
2023-08-15T00:06:11.276Z,69.08
2023-08-15T00:06:44.754Z,69.09
2023-08-15T00:07:18.679Z,69.02
2023-08-15T00:07:52.509Z,69.00
2023-08-15T00:08:26.152Z,69.06
2023-08-15T00:09:01.221Z,68.99
2023-08-15T00:09:34.715Z,68.94
2023-08-15T00:10:08.738Z,69.09
2023-08-15T00:10:42.268Z,69.02
2023-08-15T00:11:15.758Z,69.00
2023-08-15T00:11:49.067Z,68.63
2023-08-15T00:12:22.407Z,68.72
2023-08-15T00:12:57.910Z,68.41
2023-08-15T00:13:35.179Z,68.36
2023-08-15T00:14:11.118Z,68.18
2023-08-15T00:14:44.637Z,68.14
2023-08-15T00:15:19.366Z,68.17
2023-08-15T00:15:52.882Z,68.08
2023-08-15T00:16:26.337Z,68.12
2023-08-15T00:16:59.905Z,68.01
2023-08-15T00:17:33.454Z,68.11
2023-08-15T00:18:07.918Z,68.01
2023-08-15T00:18:44.182Z,68.03
2023-08-15T00:19:17.580Z,67.97
2023-08-15T00:19:51.254Z,67.98
2023-08-15T00:20:27.312Z,68.00
2023-08-15T00:21:00.765Z,68.04
2023-08-15T00:21:34.191Z,68.08
2023-08-15T00:22:07.767Z,67.97
2023-08-15T00:22:41.328Z,67.81
2023-08-15T00:23:15.632Z,67.89
2023-08-15T00:23:49.103Z,68.04
2023-08-15T00:24:22.544Z,67.98
2023-08-15T00:24:55.866Z,67.89
2023-08-15T00:25:29.247Z,68.02
2023-08-15T00:26:03.004Z,67.96
2023-08-15T00:26:36.629Z,68.03
2023-08-15T00:27:10.198Z,68.04
2023-08-15T00:27:43.611Z,68.14
2023-08-15T00:28:16.977Z,68.10
2023-08-15T00:28:50.363Z,68.10
2023-08-15T00:29:23.734Z,68.17
2023-08-15T00:29:57.017Z,68.35
2023-08-15T00:30:33.921Z,68.53
2023-08-15T00:31:08.179Z,68.60
2023-08-15T00:31:41.633Z,68.71
2023-08-15T00:32:14.992Z,68.77
2023-08-15T00:32:50.194Z,68.88
2023-08-15T00:33:23.470Z,69.01
2023-08-15T00:33:56.841Z,69.10
2023-08-15T00:34:30.166Z,68.92
2023-08-15T00:35:07.622Z,68.89
2023-08-15T00:35:44.093Z,68.68
2023-08-15T00:36:18.907Z,68.58
2023-08-15T00:36:52.253Z,68.61
2023-08-15T00:37:25.561Z,68.38
2023-08-15T00:37:58.893Z,68.42
2023-08-15T00:38:32.319Z,68.29
2023-08-15T00:39:05.740Z,68.48
2023-08-15T00:39:41.883Z,68.63
2023-08-15T00:40:16.736Z,68.59
2023-08-15T00:40:50.069Z,68.72
2023-08-15T00:41:23.409Z,68.80
2023-08-15T00:41:56.806Z,68.87
2023-08-15T00:42:30.138Z,68.79
2023-08-15T00:43:04.827Z,68.72
2023-08-15T00:43:39.186Z,68.85
2023-08-15T00:44:12.457Z,68.73
2023-08-15T00:44:45.939Z,68.70
2023-08-15T00:45:23.053Z,68.91
2023-08-15T00:46:01.120Z,68.78
2023-08-15T00:46:34.961Z,68.99
2023-08-15T00:47:09.003Z,68.92
2023-08-15T00:47:42.673Z,69.02
2023-08-15T00:48:18.271Z,68.98
2023-08-15T00:48:52.022Z,69.03
2023-08-15T00:49:25.414Z,69.03
2023-08-15T00:49:59.821Z,69.26
2023-08-15T00:50:33.697Z,69.10
2023-08-15T00:51:09.379Z,69.22
2023-08-15T00:51:43.245Z,69.15
2023-08-15T00:52:19.805Z,69.10
2023-08-15T00:52:54.350Z,69.16
2023-08-15T00:53:30.092Z,69.26
2023-08-15T00:54:03.602Z,69.28
2023-08-15T00:54:37.558Z,69.29
2023-08-15T00:55:11.279Z,69.32
2023-08-15T00:55:46.947Z,69.33
2023-08-15T00:56:21.870Z,69.27
2023-08-15T00:56:55.405Z,69.44
2023-08-15T00:57:28.901Z,69.39
2023-08-15T00:58:02.324Z,69.33
2023-08-15T00:58:36.493Z,69.33
2023-08-15T00:59:10.041Z,69.36
2023-08-15T00:59:44.965Z,69.19
2023-08-15T01:00:20.635Z,69.20
2023-08-15T01:00:54.142Z,69.19
2023-08-15T01:01:29.950Z,69.22
2023-08-15T01:02:04.089Z,69.23
2023-08-15T01:02:38.082Z,69.18
2023-08-15T01:03:13.889Z,69.25
2023-08-15T01:03:48.187Z,69.10
2023-08-15T01:04:21.978Z,69.13
2023-08-15T01:04:55.604Z,69.24
2023-08-15T01:05:30.599Z,69.29
2023-08-15T01:06:04.207Z,69.51
2023-08-15T01:06:37.724Z,69.43
2023-08-15T01:07:11.741Z,69.48
2023-08-15T01:07:45.925Z,69.58
2023-08-15T01:08:19.488Z,69.45
2023-08-15T01:08:53.767Z,69.56
2023-08-15T01:09:27.057Z,69.56
2023-08-15T01:10:00.434Z,69.53
2023-08-15T01:10:34.000Z,69.49
2023-08-15T01:11:07.438Z,69.42
2023-08-15T01:12:07.561Z,69.48
2023-08-15T01:12:45.682Z,69.24
2023-08-15T01:13:31.125Z,69.39
2023-08-15T01:14:09.832Z,69.16
2023-08-15T01:14:56.541Z,68.82
2023-08-15T01:15:33.555Z,68.71
2023-08-15T01:16:12.681Z,68.80
2023-08-15T01:16:49.674Z,68.61
2023-08-15T01:17:32.854Z,68.59
2023-08-15T01:18:14.422Z,68.61
2023-08-15T01:18:52.933Z,68.67
2023-08-15T01:19:48.286Z,68.76
2023-08-15T01:20:34.685Z,68.92
2023-08-15T01:21:08.887Z,68.71
2023-08-15T01:21:49.290Z,69.00
2023-08-15T01:22:29.561Z,68.95
2023-08-15T01:23:07.653Z,69.00
2023-08-15T01:23:45.010Z,69.20
2023-08-15T01:24:18.648Z,69.16
2023-08-15T01:24:52.645Z,69.25
2023-08-15T01:25:27.301Z,69.07
2023-08-15T01:26:00.759Z,69.05
2023-08-15T01:26:39.599Z,69.17
2023-08-15T01:27:13.734Z,69.08
2023-08-15T01:27:47.115Z,69.30
2023-08-15T01:28:20.540Z,69.30
2023-08-15T01:28:54.658Z,69.44
2023-08-15T01:29:28.112Z,69.48
2023-08-15T01:30:02.075Z,69.41
2023-08-15T01:30:35.774Z,69.39
2023-08-15T01:31:23.892Z,69.42
2023-08-15T01:32:13.765Z,69.24
2023-08-15T01:32:54.392Z,69.39
2023-08-15T01:33:35.770Z,69.41
2023-08-15T01:34:18.856Z,69.58
2023-08-15T01:35:00.335Z,69.62
2023-08-15T01:35:44.839Z,69.72
2023-08-15T01:36:26.375Z,69.72
2023-08-15T01:37:10.417Z,69.59
2023-08-15T01:37:46.406Z,69.66
2023-08-15T01:38:55.775Z,69.72
2023-08-15T01:39:32.879Z,69.69
2023-08-15T01:40:10.647Z,69.88
2023-08-15T01:40:49.162Z,69.72
2023-08-15T01:41:26.520Z,69.93
2023-08-15T01:42:03.017Z,69.96
2023-08-15T01:42:42.240Z,69.96
2023-08-15T01:43:18.050Z,70.10
2023-08-15T01:43:55.941Z,70.01
2023-08-15T01:44:31.950Z,69.89
2023-08-15T01:45:06.201Z,69.98
2023-08-15T01:45:39.766Z,70.09
2023-08-15T01:46:15.507Z,69.97
2023-08-15T01:46:49.236Z,70.05
2023-08-15T01:47:24.948Z,70.07
2023-08-15T01:47:59.234Z,70.00
2023-08-15T01:48:32.734Z,69.97
2023-08-15T01:50:43.648Z,69.82
2023-08-15T01:51:16.902Z,69.86
2023-08-15T01:51:52.068Z,69.69
2023-08-15T01:52:25.406Z,69.70
2023-08-15T01:52:58.766Z,69.44
2023-08-15T01:53:31.995Z,69.34
2023-08-15T01:54:05.394Z,69.31
2023-08-15T01:54:38.681Z,69.24
2023-08-15T01:55:12.325Z,69.07
2023-08-15T01:55:45.592Z,69.04
2023-08-15T01:56:18.829Z,68.90
2023-08-15T01:56:52.678Z,68.88
2023-08-15T01:57:26.054Z,68.78
2023-08-15T01:58:00.156Z,68.84
2023-08-15T01:58:33.487Z,68.75
2023-08-15T01:59:07.773Z,68.66
2023-08-15T01:59:41.022Z,68.76
2023-08-15T02:00:14.513Z,68.72
2023-08-15T02:00:50.477Z,68.85
2023-08-15T02:01:23.766Z,69.07
2023-08-15T02:01:57.141Z,69.16
2023-08-15T02:02:30.646Z,69.16
2023-08-15T02:03:04.496Z,69.31
2023-08-15T02:03:38.021Z,69.35
2023-08-15T02:04:11.277Z,69.42
2023-08-15T02:04:44.646Z,69.46
2023-08-15T02:05:18.426Z,69.42
2023-08-15T02:05:51.738Z,69.38
2023-08-15T02:06:27.127Z,69.23
2023-08-15T02:07:00.610Z,69.00
2023-08-15T02:07:33.915Z,68.92
2023-08-15T02:08:07.519Z,68.73
2023-08-15T02:08:40.877Z,68.59
2023-08-15T02:09:14.200Z,68.56
2023-08-15T02:09:47.493Z,68.34
2023-08-15T02:10:20.868Z,68.46
2023-08-15T02:10:55.350Z,68.63
2023-08-15T02:11:28.709Z,68.93
2023-08-15T02:12:02.355Z,68.99
2023-08-15T02:12:35.819Z,69.05
2023-08-15T02:13:09.157Z,69.42
2023-08-15T02:13:42.406Z,69.38
2023-08-15T02:14:15.718Z,69.44
2023-08-15T02:14:49.032Z,69.34
2023-08-15T02:15:22.425Z,69.47
2023-08-15T02:15:55.903Z,69.54
2023-08-15T02:16:29.397Z,69.71
2023-08-15T02:17:02.666Z,69.64
2023-08-15T02:17:36.246Z,69.98
2023-08-15T02:18:09.782Z,70.12
2023-08-15T02:18:43.300Z,70.16
2023-08-15T02:19:16.939Z,70.33
2023-08-15T02:19:50.564Z,70.46
2023-08-15T02:20:23.827Z,70.51
2023-08-15T02:20:57.398Z,70.67
2023-08-15T02:21:31.217Z,70.72
2023-08-15T02:22:04.628Z,70.73
2023-08-15T02:22:38.001Z,70.71
2023-08-15T02:23:13.145Z,70.71
2023-08-15T02:23:46.394Z,70.89
2023-08-15T02:24:19.779Z,70.80
2023-08-15T02:24:53.044Z,70.82
2023-08-15T02:25:26.375Z,70.64
2023-08-15T02:25:59.771Z,70.44
2023-08-15T02:26:37.101Z,70.32
2023-08-15T02:27:10.484Z,70.29
2023-08-15T02:27:43.788Z,70.14
2023-08-15T02:28:17.025Z,70.31
2023-08-15T02:28:50.237Z,70.34
2023-08-15T02:29:25.885Z,70.28
2023-08-15T02:29:59.334Z,70.29
2023-08-15T02:30:38.488Z,70.30
2023-08-15T02:31:12.440Z,70.37
2023-08-15T02:31:49.298Z,70.46
2023-08-15T02:32:22.569Z,70.45
2023-08-15T02:32:55.956Z,70.52
2023-08-15T02:33:29.222Z,70.51
2023-08-15T02:34:02.516Z,70.54
2023-08-15T02:34:35.883Z,70.61
2023-08-15T02:35:10.538Z,70.57
2023-08-15T02:35:43.709Z,70.84
2023-08-15T02:36:17.009Z,70.84
2023-08-15T02:36:50.610Z,70.85
2023-08-15T02:37:24.730Z,70.90
2023-08-15T02:37:58.079Z,70.78
2023-08-15T02:38:31.362Z,70.62
2023-08-15T02:39:05.062Z,70.31
2023-08-15T02:39:38.352Z,70.30
2023-08-15T02:40:11.855Z,70.32
2023-08-15T02:40:45.175Z,70.08
2023-08-15T02:41:18.520Z,70.17
2023-08-15T02:41:52.749Z,70.03
2023-08-15T02:42:27.201Z,69.93
2023-08-15T02:43:00.496Z,70.03
2023-08-15T02:43:33.826Z,70.03
2023-08-15T02:44:07.168Z,69.95
2023-08-15T02:44:40.538Z,70.23
2023-08-15T02:45:13.830Z,70.33
2023-08-15T02:45:47.070Z,70.35
2023-08-15T02:46:21.282Z,70.48
2023-08-15T02:46:54.578Z,70.62
2023-08-15T02:47:28.097Z,70.51
2023-08-15T02:48:01.308Z,70.66
2023-08-15T02:48:36.342Z,70.63
2023-08-15T02:49:09.584Z,70.65
2023-08-15T02:49:42.832Z,70.62
2023-08-15T02:50:16.534Z,70.79
2023-08-15T02:50:49.962Z,70.78
2023-08-15T02:51:23.222Z,70.68
2023-08-15T02:51:56.685Z,70.65
2023-08-15T02:52:30.049Z,70.61
2023-08-15T02:53:03.437Z,70.54
2023-08-15T02:53:37.582Z,70.51
2023-08-15T02:54:10.960Z,70.47
2023-08-15T02:54:44.361Z,70.37
2023-08-15T02:55:17.789Z,70.37
2023-08-15T02:55:54.281Z,70.32
2023-08-15T02:56:27.665Z,70.28
2023-08-15T02:57:01.007Z,69.93
2023-08-15T02:57:34.673Z,69.88
2023-08-15T02:58:08.089Z,69.84
2023-08-15T02:58:42.191Z,69.84
2023-08-15T02:59:15.402Z,69.89
2023-08-15T02:59:48.664Z,69.98
2023-08-15T03:00:22.242Z,70.06
2023-08-15T03:00:55.646Z,70.23
2023-08-15T03:01:29.017Z,70.27
2023-08-15T03:02:03.718Z,70.41
2023-08-15T03:02:37.309Z,70.46
2023-08-15T03:03:11.142Z,70.57
2023-08-15T03:03:44.546Z,70.58
2023-08-15T03:04:17.864Z,70.77
2023-08-15T03:04:51.173Z,70.80
2023-08-15T03:05:24.365Z,70.94
2023-08-15T03:06:04.966Z,71.04
2023-08-15T03:06:38.744Z,70.87
2023-08-15T03:07:11.992Z,71.07
2023-08-15T03:07:45.293Z,71.03
2023-08-15T03:08:18.616Z,71.08
2023-08-15T03:08:51.903Z,71.16
2023-08-15T03:09:25.161Z,71.23
2023-08-15T03:09:58.445Z,71.15
2023-08-15T03:10:34.698Z,71.19
2023-08-15T03:11:08.031Z,71.27
2023-08-15T03:11:41.305Z,71.28
2023-08-15T03:12:14.609Z,71.43
2023-08-15T03:12:47.849Z,71.37
2023-08-15T03:13:21.098Z,71.36
2023-08-15T03:13:54.610Z,71.42
2023-08-15T03:14:30.831Z,71.43
2023-08-15T03:15:05.379Z,71.46
2023-08-15T03:15:39.135Z,71.63
2023-08-15T03:16:12.815Z,71.42
2023-08-15T03:16:46.239Z,71.48
2023-08-15T03:17:20.988Z,71.47
2023-08-15T03:17:55.552Z,71.40
2023-08-15T03:18:28.930Z,71.26
2023-08-15T03:19:02.226Z,71.38
2023-08-15T03:19:36.114Z,71.37
2023-08-15T03:20:10.611Z,71.41
2023-08-15T03:20:43.899Z,71.27
2023-08-15T03:21:17.987Z,71.33
2023-08-15T03:21:51.367Z,71.32
2023-08-15T03:22:24.735Z,71.24
2023-08-15T03:22:58.084Z,71.29
2023-08-15T03:23:32.033Z,70.96
2023-08-15T03:24:05.636Z,71.00
2023-08-15T03:24:39.468Z,70.91
2023-08-15T03:25:12.830Z,70.85
2023-08-15T03:25:46.030Z,70.82
2023-08-15T03:26:19.531Z,70.98
2023-08-15T03:26:52.929Z,71.02
2023-08-15T03:27:26.259Z,70.81
2023-08-15T03:27:59.528Z,70.88
2023-08-15T03:28:35.326Z,70.83
2023-08-15T03:29:08.691Z,70.66
2023-08-15T03:29:42.012Z,70.70
2023-08-15T03:30:15.397Z,70.78
2023-08-15T03:30:48.877Z,70.81
2023-08-15T03:31:23.300Z,70.88
2023-08-15T03:32:01.210Z,70.93
2023-08-15T03:32:36.615Z,71.04
2023-08-15T03:33:10.314Z,71.17
2023-08-15T03:33:43.645Z,71.28
2023-08-15T03:34:17.417Z,71.42
2023-08-15T03:34:51.122Z,71.38
2023-08-15T03:35:25.012Z,71.57
2023-08-15T03:35:58.374Z,71.48
2023-08-15T03:36:31.679Z,71.58
2023-08-15T03:37:05.186Z,71.52
2023-08-15T03:37:38.448Z,71.59
2023-08-15T03:38:11.957Z,71.35
2023-08-15T03:38:45.364Z,71.53
2023-08-15T03:39:18.694Z,71.32
2023-08-15T03:39:51.999Z,71.47
2023-08-15T03:40:25.343Z,71.42
2023-08-15T03:41:06.575Z,71.40
2023-08-15T03:41:39.756Z,71.37
2023-08-15T03:42:12.993Z,71.26
2023-08-15T03:42:46.243Z,71.26
2023-08-15T03:43:19.427Z,71.42
2023-08-15T03:43:52.729Z,71.47
2023-08-15T03:44:26.008Z,71.32
2023-08-15T03:44:59.390Z,71.28
2023-08-15T03:45:32.878Z,71.35
2023-08-15T03:46:08.131Z,71.19
2023-08-15T03:46:42.192Z,71.03
2023-08-15T03:47:15.457Z,70.95
2023-08-15T03:47:51.193Z,70.99
2023-08-15T03:48:24.525Z,71.07
2023-08-15T03:48:57.878Z,70.86
2023-08-15T03:49:33.255Z,70.81
2023-08-15T03:50:06.747Z,70.79
2023-08-15T03:50:40.200Z,71.00
2023-08-15T03:51:22.778Z,70.92
2023-08-15T03:52:06.230Z,70.90
2023-08-15T03:52:39.626Z,71.09
2023-08-15T03:53:12.982Z,71.25
2023-08-15T03:53:47.496Z,71.23
2023-08-15T03:54:20.857Z,71.29
2023-08-15T03:54:54.265Z,71.21
2023-08-15T03:55:29.778Z,71.35
2023-08-15T03:56:03.170Z,71.40
2023-08-15T03:56:37.432Z,71.40
2023-08-15T03:57:10.730Z,71.54
2023-08-15T03:57:44.058Z,71.62
2023-08-15T03:58:18.555Z,71.63
2023-08-15T03:58:51.852Z,71.70
2023-08-15T03:59:25.101Z,71.64
2023-08-15T03:59:58.318Z,71.49
2023-08-15T04:00:31.658Z,71.80
2023-08-15T04:01:05.509Z,71.80
2023-08-15T04:01:39.052Z,71.91
2023-08-15T04:02:12.372Z,71.79
2023-08-15T04:02:46.446Z,72.07
2023-08-15T04:03:20.010Z,71.93
2023-08-15T04:03:53.424Z,71.94
2023-08-15T04:04:26.770Z,72.02
2023-08-15T04:05:00.136Z,72.02
2023-08-15T04:05:33.474Z,72.01
2023-08-15T04:06:06.729Z,72.08
2023-08-15T04:06:40.112Z,71.82
2023-08-15T04:07:13.367Z,71.86
2023-08-15T04:07:46.862Z,71.84
2023-08-15T04:08:20.164Z,71.65
2023-08-15T04:08:53.505Z,71.46
2023-08-15T04:09:27.967Z,71.21
2023-08-15T04:10:01.369Z,71.29
2023-08-15T04:10:40.913Z,71.24
2023-08-15T04:11:14.387Z,71.10
2023-08-15T04:11:48.862Z,70.95
2023-08-15T04:12:22.085Z,71.04
2023-08-15T04:12:56.103Z,70.89
2023-08-15T04:13:29.444Z,70.85
2023-08-15T04:14:02.786Z,70.77
2023-08-15T04:14:36.165Z,70.80
2023-08-15T04:15:10.111Z,70.77
2023-08-15T04:15:43.466Z,70.82
2023-08-15T04:16:16.922Z,70.80
2023-08-15T04:16:50.213Z,70.80
2023-08-15T04:17:23.835Z,70.87
2023-08-15T04:17:57.277Z,70.95
2023-08-15T04:18:30.653Z,70.99
2023-08-15T04:19:04.164Z,70.98
2023-08-15T04:19:37.664Z,71.18
2023-08-15T04:20:13.662Z,71.35
2023-08-15T04:20:49.307Z,71.46
2023-08-15T04:21:22.582Z,71.51
2023-08-15T04:21:55.901Z,71.70
2023-08-15T04:22:29.226Z,71.77
2023-08-15T04:23:04.183Z,71.85
2023-08-15T04:23:37.418Z,71.85
2023-08-15T04:24:10.737Z,71.95
2023-08-15T04:24:44.164Z,71.93
2023-08-15T04:25:17.971Z,72.05
2023-08-15T04:25:51.346Z,72.16
2023-08-15T04:26:24.952Z,72.18
2023-08-15T04:27:00.863Z,72.15
2023-08-15T04:27:34.360Z,72.07
2023-08-15T04:28:08.299Z,72.06
2023-08-15T04:28:42.917Z,72.14
2023-08-15T04:29:16.270Z,72.19
2023-08-15T04:29:49.565Z,72.37
2023-08-15T04:30:23.009Z,72.27
2023-08-15T04:30:56.370Z,72.29
2023-08-15T04:31:29.753Z,72.50
2023-08-15T04:32:03.207Z,72.44
2023-08-15T04:32:37.161Z,72.39
2023-08-15T04:33:10.622Z,72.42
2023-08-15T04:33:43.991Z,72.39
2023-08-15T04:34:17.479Z,72.43
2023-08-15T04:34:50.725Z,72.41
2023-08-15T04:35:25.914Z,72.35
2023-08-15T04:35:59.299Z,72.43
2023-08-15T04:36:32.554Z,72.30
2023-08-15T04:37:06.266Z,72.25
2023-08-15T04:37:39.896Z,72.22
2023-08-15T04:38:15.762Z,72.26
2023-08-15T04:38:49.119Z,72.19
2023-08-15T04:39:23.048Z,72.20
2023-08-15T04:39:56.500Z,72.30
2023-08-15T04:40:35.337Z,72.08
2023-08-15T04:41:08.761Z,72.16
2023-08-15T04:41:43.347Z,72.12
2023-08-15T04:42:17.171Z,72.06
2023-08-15T04:42:51.712Z,72.14
2023-08-15T04:43:25.101Z,72.08
2023-08-15T04:43:58.875Z,72.13
2023-08-15T04:44:33.115Z,71.99
2023-08-15T04:45:06.845Z,72.15
2023-08-15T04:45:45.376Z,72.17
2023-08-15T04:46:19.334Z,72.04
2023-08-15T04:46:52.791Z,72.10
2023-08-15T04:47:26.152Z,72.24
2023-08-15T04:47:59.827Z,72.12
2023-08-15T04:48:33.284Z,72.21
2023-08-15T04:49:06.636Z,72.02
2023-08-15T04:49:40.189Z,72.25
2023-08-15T04:50:13.690Z,72.29
2023-08-15T04:50:47.256Z,72.19
2023-08-15T04:51:20.619Z,72.25
2023-08-15T04:51:53.993Z,72.30
2023-08-15T04:52:27.384Z,72.29
2023-08-15T04:53:00.821Z,72.33
2023-08-15T04:53:34.203Z,72.48
2023-08-15T04:54:09.147Z,72.40
2023-08-15T04:54:42.454Z,72.44
2023-08-15T04:55:16.087Z,72.57
2023-08-15T04:55:49.422Z,72.58
2023-08-15T04:56:23.908Z,72.61
2023-08-15T04:56:57.216Z,72.74
2023-08-15T04:57:30.447Z,72.85
2023-08-15T04:58:04.254Z,72.85
2023-08-15T04:58:37.552Z,72.95
2023-08-15T04:59:10.778Z,72.99
2023-08-15T04:59:44.144Z,73.03
2023-08-15T05:00:20.534Z,73.05
2023-08-15T05:00:54.944Z,72.97
2023-08-15T05:01:28.279Z,72.88
2023-08-15T05:02:01.601Z,73.06
2023-08-15T05:02:35.504Z,73.05
2023-08-15T05:03:09.212Z,73.11
2023-08-15T05:03:42.725Z,73.04
2023-08-15T05:04:16.096Z,72.96
2023-08-15T05:04:49.446Z,73.02
2023-08-15T05:05:22.896Z,73.04
2023-08-15T05:05:56.470Z,73.11
2023-08-15T05:06:29.875Z,73.12
2023-08-15T05:07:03.298Z,72.96
2023-08-15T05:07:37.360Z,73.11
2023-08-15T05:08:10.704Z,72.95
2023-08-15T05:08:44.025Z,73.15
2023-08-15T05:09:18.595Z,73.00
2023-08-15T05:09:51.776Z,73.06
2023-08-15T05:10:25.010Z,72.99
2023-08-15T05:10:58.336Z,73.07
2023-08-15T05:11:31.868Z,73.00
2023-08-15T05:12:05.393Z,72.86
2023-08-15T05:12:38.780Z,72.93
2023-08-15T05:13:12.198Z,73.10
2023-08-15T05:13:45.604Z,73.02
2023-08-15T05:14:18.875Z,73.10
2023-08-15T05:14:52.164Z,73.18
2023-08-15T05:15:25.490Z,73.18
2023-08-15T05:15:58.866Z,73.21
2023-08-15T05:16:32.260Z,73.03
2023-08-15T05:17:05.894Z,73.15
2023-08-15T05:17:39.324Z,73.19
2023-08-15T05:18:16.755Z,73.06
2023-08-15T05:18:50.174Z,73.17
2023-08-15T05:19:23.784Z,73.27
2023-08-15T05:19:56.990Z,73.13
2023-08-15T05:20:31.214Z,73.19
2023-08-15T05:21:04.626Z,73.26
2023-08-15T05:21:38.150Z,73.20
2023-08-15T05:22:11.434Z,73.24
2023-08-15T05:22:45.812Z,73.28
2023-08-15T05:23:21.191Z,73.40
2023-08-15T05:23:54.892Z,73.52
2023-08-15T05:24:28.448Z,73.46
2023-08-15T05:25:02.391Z,73.52
2023-08-15T05:25:36.661Z,73.57
2023-08-15T05:26:10.606Z,73.65
2023-08-15T05:26:44.135Z,73.70
2023-08-15T05:27:17.458Z,73.67
2023-08-15T05:27:51.993Z,73.77
2023-08-15T05:28:25.300Z,73.83
2023-08-15T05:28:58.600Z,73.80
2023-08-15T05:29:35.196Z,73.81
2023-08-15T05:30:09.383Z,73.91
2023-08-15T05:30:43.854Z,73.88
2023-08-15T05:31:17.173Z,73.99
2023-08-15T05:31:50.507Z,73.84
2023-08-15T05:32:23.797Z,74.14
2023-08-15T05:32:57.130Z,74.23
2023-08-15T05:33:30.970Z,74.26
2023-08-15T05:34:04.543Z,74.20
2023-08-15T05:34:37.996Z,74.38
2023-08-15T05:35:11.867Z,74.30
2023-08-15T05:35:45.245Z,74.48
2023-08-15T05:36:18.556Z,74.37
2023-08-15T05:36:52.490Z,74.49
2023-08-15T05:37:25.823Z,74.39
2023-08-15T05:37:59.610Z,74.57
2023-08-15T05:38:32.899Z,74.60
2023-08-15T05:39:06.353Z,74.94
2023-08-15T05:39:40.606Z,74.87
2023-08-15T05:40:13.969Z,75.02
2023-08-15T05:40:47.253Z,75.08
2023-08-15T05:41:20.438Z,75.15
2023-08-15T05:41:53.769Z,75.25
2023-08-15T05:42:27.152Z,75.40
2023-08-15T05:43:00.663Z,75.48
2023-08-15T05:43:34.014Z,75.81
2023-08-15T05:44:07.459Z,75.81
2023-08-15T05:44:40.721Z,75.90
2023-08-15T05:45:15.846Z,75.99
2023-08-15T05:45:50.166Z,76.12
2023-08-15T05:46:23.492Z,76.21
2023-08-15T05:46:56.812Z,76.42
2023-08-15T05:47:30.287Z,76.54
2023-08-15T05:48:05.375Z,76.57
2023-08-15T05:48:39.821Z,76.85
2023-08-15T05:49:13.059Z,76.90
2023-08-15T05:49:46.454Z,77.05
2023-08-15T05:50:19.723Z,77.02
2023-08-15T05:50:53.053Z,77.15
2023-08-15T05:51:26.472Z,77.23
2023-08-15T05:52:01.403Z,77.24
2023-08-15T05:52:35.114Z,77.31
2023-08-15T05:53:08.318Z,77.28
2023-08-15T05:53:41.863Z,77.45
2023-08-15T05:54:15.203Z,77.32
2023-08-15T05:54:48.402Z,77.51
2023-08-15T05:55:21.699Z,77.52
2023-08-15T05:55:54.981Z,77.52
2023-08-15T05:56:28.263Z,77.43
2023-08-15T05:57:01.537Z,77.38
2023-08-15T05:57:35.049Z,77.40
2023-08-15T05:58:08.355Z,77.43
2023-08-15T05:58:41.625Z,77.38
2023-08-15T05:59:14.849Z,77.48
2023-08-15T05:59:48.105Z,77.44
2023-08-15T06:00:21.422Z,77.46
2023-08-15T06:00:55.386Z,77.60
2023-08-15T06:01:28.833Z,77.71
2023-08-15T06:02:02.137Z,77.75
2023-08-15T06:02:37.904Z,77.65
2023-08-15T06:03:11.866Z,77.70
2023-08-15T06:03:52.473Z,77.83
2023-08-15T06:04:26.648Z,77.84
2023-08-15T06:05:00.116Z,77.96
2023-08-15T06:05:33.567Z,78.09
2023-08-15T06:06:07.019Z,78.19
2023-08-15T06:06:40.375Z,78.22
2023-08-15T06:07:16.658Z,78.28
2023-08-15T06:07:49.966Z,78.40
2023-08-15T06:08:59.343Z,78.50
2023-08-15T06:09:32.658Z,78.45
2023-08-15T06:10:07.154Z,78.40
2023-08-15T06:10:40.457Z,78.55
2023-08-15T06:11:13.818Z,78.51
2023-08-15T06:11:47.272Z,78.51
2023-08-15T06:12:20.608Z,78.56
2023-08-15T06:12:54.085Z,78.74
2023-08-15T06:13:27.592Z,78.76
2023-08-15T06:14:00.945Z,78.64
2023-08-15T06:14:35.794Z,78.89
2023-08-15T06:15:09.382Z,78.94
2023-08-15T06:15:42.699Z,79.07
2023-08-15T06:16:16.036Z,78.99
2023-08-15T06:16:49.881Z,78.99
2023-08-15T06:17:23.491Z,79.02
2023-08-15T06:17:57.088Z,78.82
2023-08-15T06:18:30.406Z,78.37
2023-08-15T06:19:03.741Z,78.02
2023-08-15T06:19:37.365Z,77.50
2023-08-15T06:20:11.671Z,76.81
2023-08-15T06:20:45.529Z,75.87
2023-08-15T06:21:18.842Z,75.11
2023-08-15T06:21:52.271Z,73.73
2023-08-15T06:22:25.620Z,72.28
2023-08-15T06:22:58.988Z,71.66
2023-08-15T06:23:32.377Z,71.14
2023-08-15T06:24:06.046Z,70.28
2023-08-15T06:24:39.476Z,69.42
2023-08-15T06:25:13.125Z,69.03
2023-08-15T06:25:46.632Z,67.74
2023-08-15T06:26:20.064Z,66.33
2023-08-15T06:26:53.412Z,65.78
2023-08-15T06:27:26.844Z,64.63
2023-08-15T06:28:00.056Z,64.48
2023-08-15T06:28:33.504Z,64.08
2023-08-15T06:29:07.363Z,62.48
2023-08-15T06:29:40.701Z,61.69
2023-08-15T06:30:14.453Z,61.61
2023-08-15T06:30:47.850Z,61.41
2023-08-15T06:31:21.282Z,62.35
2023-08-15T06:31:55.146Z,62.85
2023-08-15T06:32:29.773Z,62.23
2023-08-15T06:33:03.182Z,61.39
2023-08-15T06:33:36.794Z,60.65
2023-08-15T06:34:10.624Z,59.98
2023-08-15T06:34:43.896Z,59.70
2023-08-15T06:35:17.174Z,59.05
2023-08-15T06:35:50.376Z,58.29
2023-08-15T06:36:23.839Z,57.77
2023-08-15T06:36:57.205Z,57.91
2023-08-15T06:37:30.565Z,57.70
2023-08-15T06:38:03.897Z,57.70
2023-08-15T06:38:37.448Z,57.34
2023-08-15T06:39:10.688Z,56.79
2023-08-15T06:39:43.965Z,56.21
2023-08-15T06:40:17.340Z,55.38
2023-08-15T06:40:51.033Z,55.18
2023-08-15T06:41:24.278Z,55.01
2023-08-15T06:41:58.146Z,53.59
2023-08-15T06:42:31.326Z,52.07
2023-08-15T06:43:04.886Z,51.25
2023-08-15T06:43:38.215Z,51.00
2023-08-15T06:44:11.531Z,50.83
2023-08-15T06:44:45.067Z,50.46
2023-08-15T06:45:20.399Z,49.58
2023-08-15T06:45:53.626Z,49.08
2023-08-15T06:46:26.908Z,49.06
2023-08-15T06:47:00.616Z,49.66
2023-08-15T06:47:33.880Z,48.86
2023-08-15T06:48:07.542Z,47.98
2023-08-15T06:48:40.949Z,47.24
2023-08-15T06:49:15.412Z,47.11
2023-08-15T06:49:48.810Z,46.56
2023-08-15T06:50:22.361Z,47.37
2023-08-15T06:50:55.621Z,47.33
2023-08-15T06:51:29.207Z,47.73
2023-08-15T06:52:02.537Z,47.67
2023-08-15T06:52:36.420Z,46.09
2023-08-15T06:53:09.642Z,46.28
2023-08-15T06:53:46.109Z,46.71
2023-08-15T06:54:19.405Z,46.95
2023-08-15T06:54:52.711Z,46.00
2023-08-15T06:55:26.555Z,44.32
2023-08-15T06:56:00.015Z,43.47
2023-08-15T06:56:33.348Z,43.08
2023-08-15T06:57:08.694Z,42.78
2023-08-15T06:57:42.001Z,42.99
2023-08-15T06:58:15.282Z,43.05
2023-08-15T06:58:48.600Z,41.92
2023-08-15T06:59:24.969Z,40.84
2023-08-15T06:59:58.341Z,40.63
2023-08-15T07:00:31.694Z,40.76
2023-08-15T07:01:06.389Z,40.54
2023-08-15T07:01:47.729Z,40.04
2023-08-15T07:02:22.454Z,39.39
2023-08-15T07:02:55.726Z,39.28
2023-08-15T07:03:29.363Z,39.11
2023-08-15T07:04:02.982Z,38.25
2023-08-15T07:04:41.593Z,38.92
2023-08-15T07:05:15.127Z,38.92
2023-08-15T07:05:48.615Z,38.45
2023-08-15T07:06:21.976Z,39.09
2023-08-15T07:06:58.321Z,38.60
2023-08-15T07:07:31.842Z,37.83
2023-08-15T07:08:06.227Z,37.66
2023-08-15T07:08:39.697Z,37.46
2023-08-15T07:09:13.025Z,37.29
2023-08-15T07:09:47.858Z,36.82
2023-08-15T07:10:21.607Z,36.75
2023-08-15T07:10:58.143Z,37.27
2023-08-15T07:11:31.468Z,37.64
2023-08-15T07:12:06.366Z,37.64
2023-08-15T07:12:39.940Z,36.52
2023-08-15T07:13:13.541Z,36.10
2023-08-15T07:13:47.026Z,35.44
2023-08-15T07:14:20.337Z,35.32
2023-08-15T07:14:53.909Z,35.77
2023-08-15T07:15:27.470Z,35.38
2023-08-15T07:16:00.953Z,34.78
2023-08-15T07:16:34.566Z,35.09
2023-08-15T07:17:08.069Z,35.22
2023-08-15T07:17:41.893Z,35.50
2023-08-15T07:18:15.212Z,35.70
2023-08-15T07:19:21.880Z,35.08
2023-08-15T07:19:55.236Z,35.26
2023-08-15T07:20:31.364Z,35.42
2023-08-15T07:21:07.642Z,35.22
2023-08-15T07:21:42.813Z,34.93
2023-08-15T07:22:16.266Z,35.06
2023-08-15T07:22:49.611Z,36.08
2023-08-15T07:23:22.996Z,36.26
2023-08-15T07:23:56.616Z,36.12
2023-08-15T07:24:29.961Z,35.05
2023-08-15T07:25:03.363Z,35.05